Time,TemperatureF,DewpointF,PressureIn,WindDirection,WindDirectionDegrees,WindSpeedMPH,WindSpeedGustMPH,Humidity,HourlyPrecipIn,Conditions,Clouds,dailyrainin,SoftwareType,DateUTC
2013-01-19 00:05:00,53.7,50.5,30.23,NNW,336,3.0,4.0,89,0.00,,,0.00,Wunderground v.1.15,2013-01-19 05:05:00,
2013-01-19 00:15:00,53.5,50.6,30.23,NNW,334,2.0,4.0,90,0.00,,,0.00,Wunderground v.1.15,2013-01-19 05:15:00,
2013-01-19 00:20:00,53.5,50.6,30.23,NNW,334,2.0,2.0,90,0.00,,,0.00,Wunderground v.1.15,2013-01-19 05:20:00,
2013-01-19 00:25:00,53.5,50.6,30.23,NNW,334,2.0,2.0,90,0.00,,,0.00,Wunderground v.1.15,2013-01-19 05:25:00,
2013-01-19 00:30:00,53.7,50.8,30.23,NNW,334,1.0,3.0,90,0.00,,,0.00,Wunderground v.1.15,2013-01-19 05:30:00,
2013-01-19 00:35:00,53.8,50.9,30.23,NNW,333,2.0,3.0,90,0.00,,,0.00,Wunderground v.1.15,2013-01-19 05:35:00,
2013-01-19 00:40:00,53.9,51.0,30.23,NNW,333,3.0,3.0,90,0.00,,,0.00,Wunderground v.1.15,2013-01-19 05:40:00,
2013-01-19 00:45:00,54.0,51.1,30.23,NNW,333,2.0,3.0,90,0.00,,,0.00,Wunderground v.1.15,2013-01-19 05:45:00,
2013-01-19 00:50:00,54.0,51.1,30.23,NNW,333,2.0,2.0,90,0.00,,,0.00,Wunderground v.1.15,2013-01-19 05:50:00,
2013-01-19 00:55:00,54.0,51.1,30.23,NNW,333,3.0,3.0,90,0.00,,,0.00,Wunderground v.1.15,2013-01-19 05:55:00,
2013-01-19 01:00:00,54.1,51.2,30.23,NNW,333,3.0,4.0,90,0.00,,,0.00,Wunderground v.1.15,2013-01-19 06:00:00,
2013-01-19 01:05:00,54.2,51.3,30.23,NNW,334,3.0,4.0,90,0.00,,,0.00,Wunderground v.1.15,2013-01-19 06:05:00,
2013-01-19 01:15:00,54.3,51.4,30.22,NNW,336,3.0,3.0,90,0.00,,,0.00,Wunderground v.1.15,2013-01-19 06:15:00,
2013-01-19 01:20:00,54.3,51.4,30.22,NNW,336,2.0,2.0,90,0.00,,,0.00,Wunderground v.1.15,2013-01-19 06:20:00,
2013-01-19 01:25:00,54.3,51.4,30.22,NNW,336,2.0,2.0,90,0.00,,,0.00,Wunderground v.1.15,2013-01-19 06:25:00,
2013-01-19 01:35:00,54.3,51.4,30.22,NNW,336,2.0,3.0,90,0.00,,,0.00,Wunderground v.1.15,2013-01-19 06:35:00,
2013-01-19 01:40:00,54.4,51.5,30.22,NNW,336,3.0,3.0,90,0.00,,,0.00,Wunderground v.1.15,2013-01-19 06:40:00,
2013-01-19 01:45:00,54.4,51.5,30.22,NNW,336,3.0,3.0,90,0.00,,,0.00,Wunderground v.1.15,2013-01-19 06:45:00,
2013-01-19 01:50:00,54.5,51.6,30.22,NNW,336,3.0,3.0,90,0.00,,,0.00,Wunderground v.1.15,2013-01-19 06:50:00,
2013-01-19 01:55:00,54.5,51.6,30.22,NNW,336,3.0,3.0,90,0.00,,,0.00,Wunderground v.1.15,2013-01-19 06:55:00,
2013-01-19 02:05:00,54.5,51.6,30.22,NNW,336,2.0,2.0,90,0.00,,,0.00,Wunderground v.1.15,2013-01-19 07:05:00,
2013-01-19 02:10:00,54.5,51.6,30.22,NNW,336,1.0,1.0,90,0.00,,,0.00,Wunderground v.1.15,2013-01-19 07:10:00,
2013-01-19 02:15:00,54.5,51.6,30.22,NNW,336,1.0,1.0,90,0.00,,,0.00,Wunderground v.1.15,2013-01-19 07:15:00,
2013-01-19 02:20:00,54.5,51.6,30.21,NNW,336,1.0,2.0,90,0.00,,,0.00,Wunderground v.1.15,2013-01-19 07:20:00,
2013-01-19 02:25:00,54.5,51.6,30.21,NNW,335,1.0,2.0,90,0.00,,,0.00,Wunderground v.1.15,2013-01-19 07:25:00,
2013-01-19 02:30:00,54.5,51.6,30.21,NNW,335,2.0,2.0,90,0.00,,,0.00,Wunderground v.1.15,2013-01-19 07:30:00,
2013-01-19 02:35:00,54.5,51.6,30.21,NNW,334,1.0,2.0,90,0.00,,,0.00,Wunderground v.1.15,2013-01-19 07:35:00,
2013-01-19 02:40:00,54.4,51.5,30.21,NNW,335,2.0,2.0,90,0.00,,,0.00,Wunderground v.1.15,2013-01-19 07:40:00,
2013-01-19 02:45:00,54.5,51.6,30.20,NNW,335,2.0,3.0,90,0.00,,,0.00,Wunderground v.1.15,2013-01-19 07:45:00,
2013-01-19 02:50:00,54.5,51.6,30.20,NNW,335,2.0,2.0,90,0.00,,,0.00,Wunderground v.1.15,2013-01-19 07:50:00,
2013-01-19 02:55:00,54.5,51.6,30.21,NNW,335,1.0,2.0,90,0.00,,,0.00,Wunderground v.1.15,2013-01-19 07:55:00,
2013-01-19 03:00:00,54.5,51.6,30.21,NNW,334,1.0,1.0,90,0.00,,,0.00,Wunderground v.1.15,2013-01-19 08:00:00,
2013-01-19 03:05:00,54.5,51.6,30.21,NNW,334,1.0,1.0,90,0.00,,,0.00,Wunderground v.1.15,2013-01-19 08:05:00,
2013-01-19 03:15:00,54.4,51.5,30.21,NNW,334,1.0,4.0,90,0.00,,,0.00,Wunderground v.1.15,2013-01-19 08:15:00,
2013-01-19 03:25:00,54.5,51.9,30.20,NNW,334,2.0,4.0,91,0.00,,,0.00,Wunderground v.1.15,2013-01-19 08:25:00,
2013-01-19 03:30:00,54.5,51.9,30.21,NNW,334,2.0,2.0,91,0.00,,,0.00,Wunderground v.1.15,2013-01-19 08:30:00,
2013-01-19 03:35:00,54.6,52.0,30.20,NNW,333,2.0,2.0,91,0.00,,,0.00,Wunderground v.1.15,2013-01-19 08:35:00,
2013-01-19 03:40:00,54.6,52.0,30.20,NNW,334,1.0,1.0,91,0.00,,,0.00,Wunderground v.1.15,2013-01-19 08:40:00,
2013-01-19 03:45:00,54.6,52.0,30.20,NNW,333,1.0,2.0,91,0.00,,,0.00,Wunderground v.1.15,2013-01-19 08:45:00,
2013-01-19 03:50:00,54.6,52.0,30.20,NNW,334,3.0,4.0,91,0.00,,,0.00,Wunderground v.1.15,2013-01-19 08:50:00,
2013-01-19 03:55:00,54.7,52.1,30.20,NNW,336,3.0,4.0,91,0.00,,,0.00,Wunderground v.1.15,2013-01-19 08:55:00,
2013-01-19 04:00:00,54.8,52.2,30.20,NNW,336,3.0,3.0,91,0.00,,,0.00,Wunderground v.1.15,2013-01-19 09:00:00,
2013-01-19 04:05:00,54.9,52.3,30.20,NNW,334,3.0,3.0,91,0.00,,,0.00,Wunderground v.1.15,2013-01-19 09:05:00,
2013-01-19 04:10:00,54.9,52.3,30.20,NNW,337,3.0,3.0,91,0.00,,,0.00,Wunderground v.1.15,2013-01-19 09:10:00,
2013-01-19 04:15:00,55.0,52.4,30.20,NNW,337,3.0,3.0,91,0.00,,,0.00,Wunderground v.1.15,2013-01-19 09:15:00,
2013-01-19 04:20:00,55.0,52.4,30.20,NNW,337,3.0,3.0,91,0.00,,,0.00,Wunderground v.1.15,2013-01-19 09:20:00,
2013-01-19 04:25:00,55.0,52.4,30.20,NNW,336,3.0,3.0,91,0.00,,,0.00,Wunderground v.1.15,2013-01-19 09:25:00,
2013-01-19 04:30:00,55.1,52.5,30.20,NNW,336,3.0,3.0,91,0.00,,,0.00,Wunderground v.1.15,2013-01-19 09:30:00,
2013-01-19 04:35:00,55.1,52.5,30.20,NNW,338,3.0,3.0,91,0.00,,,0.00,Wunderground v.1.15,2013-01-19 09:35:00,
2013-01-19 04:40:00,55.2,52.6,30.20,NNW,339,3.0,3.0,91,0.00,,,0.00,Wunderground v.1.15,2013-01-19 09:40:00,
2013-01-19 04:45:00,55.2,52.6,30.20,NNW,337,3.0,5.0,91,0.00,,,0.00,Wunderground v.1.15,2013-01-19 09:45:00,
2013-01-19 04:50:00,55.1,52.5,30.20,NNW,338,3.0,3.0,91,0.00,,,0.00,Wunderground v.1.15,2013-01-19 09:50:00,
2013-01-19 04:55:00,55.1,52.5,30.21,NNW,339,3.0,3.0,91,0.00,,,0.00,Wunderground v.1.15,2013-01-19 09:55:00,
2013-01-19 05:00:00,55.1,52.5,30.20,NNW,338,2.0,3.0,91,0.00,,,0.00,Wunderground v.1.15,2013-01-19 10:00:00,
2013-01-19 05:05:00,55.1,52.5,30.20,NNW,338,1.0,3.0,91,0.00,,,0.00,Wunderground v.1.15,2013-01-19 10:05:00,
2013-01-19 05:10:00,55.2,52.6,30.21,NNW,338,2.0,3.0,91,0.00,,,0.00,Wunderground v.1.15,2013-01-19 10:10:00,
2013-01-19 05:15:00,55.2,52.6,30.21,NNW,338,2.0,3.0,91,0.00,,,0.00,Wunderground v.1.15,2013-01-19 10:15:00,
2013-01-19 05:20:00,55.3,52.7,30.20,NNW,338,3.0,3.0,91,0.00,,,0.00,Wunderground v.1.15,2013-01-19 10:20:00,
2013-01-19 05:25:00,55.3,52.7,30.20,NNW,337,3.0,3.0,91,0.00,,,0.00,Wunderground v.1.15,2013-01-19 10:25:00,
2013-01-19 05:30:00,55.4,53.1,30.21,NNW,337,3.0,5.0,92,0.00,,,0.00,Wunderground v.1.15,2013-01-19 10:30:00,
2013-01-19 05:35:00,55.5,53.2,30.21,NNW,338,3.0,6.0,92,0.00,,,0.00,Wunderground v.1.15,2013-01-19 10:35:00,
2013-01-19 05:40:00,55.5,53.2,30.21,NNW,340,3.0,3.0,92,0.00,,,0.00,Wunderground v.1.15,2013-01-19 10:40:00,
2013-01-19 05:45:00,55.6,53.3,30.21,NNW,340,3.0,3.0,92,0.00,,,0.00,Wunderground v.1.15,2013-01-19 10:45:00,
2013-01-19 05:50:00,55.6,53.0,30.21,NNW,338,3.0,5.0,91,0.00,,,0.00,Wunderground v.1.15,2013-01-19 10:50:00,
2013-01-19 05:55:00,55.6,53.0,30.21,NNW,338,3.0,5.0,91,0.00,,,0.00,Wunderground v.1.15,2013-01-19 10:55:00,
2013-01-19 06:00:00,55.6,53.0,30.21,NNW,339,3.0,3.0,91,0.00,,,0.00,Wunderground v.1.15,2013-01-19 11:00:00,
2013-01-19 06:05:00,55.7,53.1,30.21,NNW,338,3.0,5.0,91,0.00,,,0.00,Wunderground v.1.15,2013-01-19 11:05:00,
2013-01-19 06:15:00,55.6,53.0,30.21,NNW,338,3.0,4.0,91,0.00,,,0.00,Wunderground v.1.15,2013-01-19 11:15:00,
2013-01-19 07:50:00,56.1,53.5,30.23,NNW,346,2.0,3.0,91,0.00,,,0.00,Wunderground v.1.15,2013-01-19 12:50:00,
2013-01-19 07:55:00,56.2,53.6,30.24,NNW,345,2.0,4.0,91,0.00,,,0.00,Wunderground v.1.15,2013-01-19 12:55:00,
2013-01-19 08:00:00,56.4,53.8,30.24,NNW,346,3.0,3.0,91,0.00,,,0.00,Wunderground v.1.15,2013-01-19 13:00:00,
2013-01-19 08:05:00,56.5,53.9,30.24,NNW,342,3.0,3.0,91,0.00,,,0.00,Wunderground v.1.15,2013-01-19 13:05:00,
2013-01-19 08:10:00,56.6,54.0,30.24,NNW,346,3.0,3.0,91,0.00,,,0.00,Wunderground v.1.15,2013-01-19 13:10:00,
2013-01-19 08:15:00,56.7,54.1,30.24,NNW,346,3.0,4.0,91,0.00,,,0.00,Wunderground v.1.15,2013-01-19 13:15:00,
2013-01-19 08:20:00,56.8,54.2,30.24,NNW,346,4.0,5.0,91,0.00,,,0.00,Wunderground v.1.15,2013-01-19 13:20:00,
2013-01-19 08:25:00,56.9,54.0,30.24,North,355,4.0,5.0,90,0.00,,,0.00,Wunderground v.1.15,2013-01-19 13:25:00,
2013-01-19 08:30:00,57.1,54.2,30.25,North,360,5.0,5.0,90,0.00,,,0.00,Wunderground v.1.15,2013-01-19 13:30:00,
2013-01-19 08:40:00,57.6,54.7,30.25,North,349,4.0,4.0,90,0.00,,,0.00,Wunderground v.1.15,2013-01-19 13:40:00,
2013-01-19 08:45:00,58.0,55.1,30.25,North,355,4.0,4.0,90,0.00,,,0.00,Wunderground v.1.15,2013-01-19 13:45:00,
2013-01-19 08:50:00,58.4,55.5,30.25,North,355,4.0,4.0,90,0.00,,,0.00,Wunderground v.1.15,2013-01-19 13:50:00,
2013-01-19 08:55:00,58.6,55.4,30.25,North,360,4.0,9.0,89,0.00,,,0.00,Wunderground v.1.15,2013-01-19 13:55:00,
2013-01-19 09:00:00,59.0,55.8,30.25,North,5,5.0,5.0,89,0.00,,,0.00,Wunderground v.1.15,2013-01-19 14:00:00,
2013-01-19 09:05:00,59.5,55.9,30.25,North,5,6.0,6.0,88,0.00,,,0.00,Wunderground v.1.15,2013-01-19 14:05:00,
2013-01-19 09:10:00,60.1,56.5,30.25,North,360,6.0,7.0,88,0.00,,,0.00,Wunderground v.1.15,2013-01-19 14:10:00,
2013-01-19 09:15:00,60.7,56.8,30.25,North,355,6.0,7.0,87,0.00,,,0.00,Wunderground v.1.15,2013-01-19 14:15:00,
2013-01-19 09:20:00,61.1,56.9,30.25,NNE,13,6.0,6.0,86,0.00,,,0.00,Wunderground v.1.15,2013-01-19 14:20:00,
2013-01-19 09:25:00,61.7,57.5,30.25,North,360,6.0,8.0,86,0.00,,,0.00,Wunderground v.1.15,2013-01-19 14:25:00,
2013-01-19 09:30:00,62.3,57.7,30.25,North,360,6.0,9.0,85,0.00,,,0.00,Wunderground v.1.15,2013-01-19 14:30:00,
2013-01-19 09:35:00,62.6,57.7,30.25,North,360,7.0,9.0,84,0.00,,,0.00,Wunderground v.1.15,2013-01-19 14:35:00,
2013-01-19 09:40:00,62.9,57.7,30.25,North,355,7.0,10.0,83,0.00,,,0.00,Wunderground v.1.15,2013-01-19 14:40:00,
2013-01-19 09:45:00,63.3,57.7,30.25,NNE,24,8.0,10.0,82,0.00,,,0.00,Wunderground v.1.15,2013-01-19 14:45:00,
2013-01-19 09:50:00,63.8,58.2,30.25,North,9,8.0,8.0,82,0.00,,,0.00,Wunderground v.1.15,2013-01-19 14:50:00,
2013-01-19 09:55:00,64.4,58.4,30.25,North,9,8.0,8.0,81,0.00,,,0.01,Wunderground v.1.15,2013-01-19 14:55:00,
2013-01-19 10:00:00,65.0,59.0,30.25,North,360,8.0,11.0,81,0.00,,,0.01,Wunderground v.1.15,2013-01-19 15:00:00,
2013-01-19 10:05:00,65.7,59.7,30.25,NNW,343,8.0,11.0,81,0.00,,,0.01,Wunderground v.1.15,2013-01-19 15:05:00,
2013-01-19 10:10:00,66.3,59.9,30.25,NNE,23,8.0,8.0,80,0.00,,,0.01,Wunderground v.1.15,2013-01-19 15:10:00,
2013-01-19 10:15:00,66.7,59.6,30.25,NE,36,7.0,8.0,78,0.00,,,0.01,Wunderground v.1.15,2013-01-19 15:15:00,
2013-01-19 10:20:00,67.0,59.9,30.25,NNE,17,8.0,8.0,78,0.00,,,0.01,Wunderground v.1.15,2013-01-19 15:20:00,
2013-01-19 10:25:00,67.7,60.2,30.25,NE,35,8.0,9.0,77,0.00,,,0.01,Wunderground v.1.15,2013-01-19 15:25:00,
2013-01-19 10:30:00,68.0,60.2,30.25,NNE,30,8.0,8.0,76,0.00,,,0.01,Wunderground v.1.15,2013-01-19 15:30:00,
2013-01-19 10:35:00,68.4,60.5,30.25,NE,34,8.0,8.0,76,0.00,,,0.01,Wunderground v.1.15,2013-01-19 15:35:00,
2013-01-19 10:40:00,68.8,60.6,30.25,North,355,8.0,8.0,75,0.00,,,0.01,Wunderground v.1.15,2013-01-19 15:40:00,
2013-01-19 10:45:00,69.0,60.7,30.25,NNE,19,9.0,9.0,75,0.00,,,0.01,Wunderground v.1.15,2013-01-19 15:45:00,
2013-01-19 10:50:00,69.4,60.8,30.25,North,5,8.0,8.0,74,0.00,,,0.01,Wunderground v.1.15,2013-01-19 15:50:00,
2013-01-19 10:55:00,69.7,61.0,30.24,NE,38,7.0,8.0,74,0.00,,,0.01,Wunderground v.1.15,2013-01-19 15:55:00,
2013-01-19 11:00:00,70.1,61.4,30.24,NE,41,8.0,8.0,74,0.00,,,0.01,Wunderground v.1.15,2013-01-19 16:00:00,
2013-01-19 11:05:00,70.3,60.8,30.24,ENE,71,9.0,10.0,72,0.00,,,0.01,Wunderground v.1.15,2013-01-19 16:05:00,
2013-01-19 11:15:00,70.8,61.3,30.23,NE,37,8.0,9.0,72,0.00,,,0.01,Wunderground v.1.15,2013-01-19 16:15:00,
2013-01-19 11:20:00,71.1,61.6,30.23,North,9,8.0,8.0,72,0.00,,,0.01,Wunderground v.1.15,2013-01-19 16:20:00,
2013-01-19 11:25:00,71.3,61.4,30.23,ENE,59,8.0,8.0,71,0.00,,,0.01,Wunderground v.1.15,2013-01-19 16:25:00,
2013-01-19 11:30:00,71.2,61.7,30.23,ENE,78,7.0,7.0,72,0.00,,,0.01,Wunderground v.1.15,2013-01-19 16:30:00,
2013-01-19 11:35:00,71.3,61.4,30.23,NE,38,8.0,8.0,71,0.00,,,0.01,Wunderground v.1.15,2013-01-19 16:35:00,
2013-01-19 11:40:00,71.7,61.8,30.23,NNE,19,9.0,9.0,71,0.00,,,0.01,Wunderground v.1.15,2013-01-19 16:40:00,
2013-01-19 11:45:00,71.9,61.6,30.22,NNE,21,10.0,11.0,70,0.00,,,0.01,Wunderground v.1.15,2013-01-19 16:45:00,
2013-01-19 11:50:00,71.4,61.1,30.22,ENE,63,9.0,9.0,70,0.00,,,0.01,Wunderground v.1.15,2013-01-19 16:50:00,
2013-01-19 11:55:00,71.0,61.1,30.22,ENE,60,8.0,9.0,71,0.00,,,0.01,Wunderground v.1.15,2013-01-19 16:55:00,
2013-01-19 12:00:00,71.1,61.6,30.21,NE,41,6.0,10.0,72,0.00,,,0.01,Wunderground v.1.15,2013-01-19 17:00:00,
2013-01-19 12:05:00,71.1,61.6,30.21,NNE,26,6.0,10.0,72,0.00,,,0.01,Wunderground v.1.15,2013-01-19 17:05:00,
2013-01-19 12:10:00,71.1,61.6,30.21,ENE,59,8.0,8.0,72,0.00,,,0.01,Wunderground v.1.15,2013-01-19 17:10:00,
2013-01-19 12:15:00,70.7,61.6,30.20,ENE,57,9.0,11.0,73,0.00,,,0.01,Wunderground v.1.15,2013-01-19 17:15:00,
2013-01-19 12:20:00,70.7,61.6,30.19,North,10,9.0,9.0,73,0.00,,,0.01,Wunderground v.1.15,2013-01-19 17:20:00,
2013-01-19 12:25:00,71.1,61.6,30.19,NE,37,9.0,10.0,72,0.00,,,0.01,Wunderground v.1.15,2013-01-19 17:25:00,
2013-01-19 12:30:00,71.1,61.6,30.19,NNE,17,10.0,15.0,72,0.00,,,0.01,Wunderground v.1.15,2013-01-19 17:30:00,
2013-01-19 12:40:00,71.9,62.4,30.18,NNE,26,9.0,9.0,72,0.00,,,0.01,Wunderground v.1.15,2013-01-19 17:40:00,
2013-01-19 12:45:00,72.4,62.9,30.18,NE,43,8.0,9.0,72,0.00,,,0.01,Wunderground v.1.15,2013-01-19 17:45:00,
2013-01-19 12:50:00,72.6,62.7,30.18,NE,51,9.0,9.0,71,0.00,,,0.01,Wunderground v.1.15,2013-01-19 17:50:00,
2013-01-19 12:55:00,72.4,62.1,30.17,NE,46,9.0,11.0,70,0.00,,,0.01,Wunderground v.1.15,2013-01-19 17:55:00,
2013-01-19 13:00:00,72.0,61.7,30.17,NE,34,9.0,9.0,70,0.00,,,0.01,Wunderground v.1.15,2013-01-19 18:00:00,
2013-01-19 13:05:00,72.2,62.7,30.17,NNE,24,8.0,11.0,72,0.00,,,0.01,Wunderground v.1.15,2013-01-19 18:05:00,
2013-01-19 13:15:00,72.5,62.2,30.15,NNE,19,7.0,8.0,70,0.00,,,0.01,Wunderground v.1.15,2013-01-19 18:15:00,
2013-01-19 13:20:00,72.5,62.2,30.15,NNE,31,8.0,8.0,70,0.00,,,0.01,Wunderground v.1.15,2013-01-19 18:20:00,
2013-01-19 13:25:00,73.2,62.4,30.15,NE,37,8.0,8.0,69,0.00,,,0.01,Wunderground v.1.15,2013-01-19 18:25:00,
2013-01-19 13:30:00,72.9,62.1,30.14,ENE,57,6.0,10.0,69,0.00,,,0.01,Wunderground v.1.15,2013-01-19 18:30:00,
2013-01-19 13:40:00,73.2,62.0,30.14,NNE,32,7.0,7.0,68,0.00,,,0.01,Wunderground v.1.15,2013-01-19 18:40:00,
2013-01-19 13:45:00,73.4,63.0,30.14,ENE,61,7.0,7.0,70,0.00,,,0.01,Wunderground v.1.15,2013-01-19 18:45:00,
2013-01-19 13:50:00,73.3,61.7,30.14,NNE,21,7.0,7.0,67,0.00,,,0.01,Wunderground v.1.15,2013-01-19 18:50:00,
2013-01-19 14:00:00,72.5,61.3,30.13,ENE,57,8.0,8.0,68,0.00,,,0.01,Wunderground v.1.15,2013-01-19 19:00:00,
2013-01-19 14:05:00,72.1,61.8,30.13,East,82,7.0,8.0,70,0.00,,,0.01,Wunderground v.1.15,2013-01-19 19:05:00,
2013-01-19 14:20:00,73.5,62.7,30.12,NNE,26,7.0,10.0,69,0.00,,,0.01,Wunderground v.1.15,2013-01-19 19:20:00,
2013-01-19 14:25:00,74.1,62.4,30.12,NNE,22,8.0,10.0,67,0.00,,,0.01,Wunderground v.1.15,2013-01-19 19:25:00,
2013-01-19 14:30:00,73.8,62.2,30.12,NNE,22,7.0,7.0,67,0.00,,,0.01,Wunderground v.1.15,2013-01-19 19:30:00,
2013-01-19 14:40:00,73.5,61.9,30.11,NE,34,7.0,7.0,67,0.00,,,0.01,Wunderground v.1.15,2013-01-19 19:40:00,
2013-01-19 14:45:00,72.8,61.6,30.11,ENE,60,7.0,7.0,68,0.00,,,0.01,Wunderground v.1.15,2013-01-19 19:45:00,
2013-01-19 14:50:00,72.6,61.8,30.11,ENE,61,4.0,6.0,69,0.00,,,0.01,Wunderground v.1.15,2013-01-19 19:50:00,
2013-01-19 15:00:00,72.2,61.9,30.12,North,5,6.0,7.0,70,0.00,,,0.01,Wunderground v.1.15,2013-01-19 20:00:00,
2013-01-19 15:05:00,72.1,61.8,30.11,NE,42,7.0,7.0,70,0.00,,,0.01,Wunderground v.1.15,2013-01-19 20:05:00,
2013-01-19 15:15:00,72.5,61.7,30.11,NNE,22,7.0,9.0,69,0.00,,,0.01,Wunderground v.1.15,2013-01-19 20:15:00,
2013-01-19 15:20:00,72.5,61.7,30.11,ENE,69,6.0,6.0,69,0.00,,,0.01,Wunderground v.1.15,2013-01-19 20:20:00,
2013-01-19 15:25:00,72.4,62.1,30.11,ENE,75,6.0,6.0,70,0.00,,,0.01,Wunderground v.1.15,2013-01-19 20:25:00,
2013-01-19 15:30:00,72.4,62.5,30.11,ENE,73,6.0,6.0,71,0.00,,,0.01,Wunderground v.1.15,2013-01-19 20:30:00,
2013-01-19 15:35:00,72.4,62.5,30.11,NNE,29,6.0,6.0,71,0.00,,,0.01,Wunderground v.1.15,2013-01-19 20:35:00,
2013-01-19 15:40:00,72.2,62.3,30.11,NE,53,6.0,6.0,71,0.00,,,0.01,Wunderground v.1.15,2013-01-19 20:40:00,
2013-01-19 15:45:00,71.8,61.9,30.11,NE,46,6.0,6.0,71,0.00,,,0.01,Wunderground v.1.15,2013-01-19 20:45:00,
2013-01-19 15:50:00,71.7,62.2,30.11,ENE,61,6.0,6.0,72,0.00,,,0.01,Wunderground v.1.15,2013-01-19 20:50:00,
2013-01-19 16:00:00,71.4,61.5,30.11,NE,42,5.0,6.0,71,0.00,,,0.01,Wunderground v.1.15,2013-01-19 21:00:00,
2013-01-19 16:05:00,71.2,61.3,30.11,ENE,67,6.0,6.0,71,0.00,,,0.01,Wunderground v.1.15,2013-01-19 21:05:00,
2013-01-19 16:10:00,71.2,61.3,30.11,ENE,59,5.0,5.0,71,0.00,,,0.01,Wunderground v.1.15,2013-01-19 21:10:00,
2013-01-19 16:20:00,71.3,61.8,30.11,NE,52,5.0,5.0,72,0.00,,,0.01,Wunderground v.1.15,2013-01-19 21:20:00,
2013-01-19 16:25:00,71.5,62.0,30.11,NNE,32,5.0,5.0,72,0.00,,,0.01,Wunderground v.1.15,2013-01-19 21:25:00,
2013-01-19 16:30:00,71.6,62.1,30.11,NNE,32,4.0,5.0,72,0.00,,,0.01,Wunderground v.1.15,2013-01-19 21:30:00,
2013-01-19 16:35:00,71.5,61.6,30.11,NNE,27,5.0,7.0,71,0.00,,,0.01,Wunderground v.1.15,2013-01-19 21:35:00,
2013-01-19 16:40:00,71.2,61.7,30.11,NNE,15,6.0,9.0,72,0.00,,,0.01,Wunderground v.1.15,2013-01-19 21:40:00,
2013-01-19 16:45:00,71.0,61.5,30.11,NNE,27,6.0,9.0,72,0.00,,,0.01,Wunderground v.1.15,2013-01-19 21:45:00,
2013-01-19 16:50:00,70.8,61.3,30.12,NNE,28,6.0,6.0,72,0.00,,,0.01,Wunderground v.1.15,2013-01-19 21:50:00,
2013-01-19 17:00:00,70.4,60.9,30.12,NE,37,6.0,7.0,72,0.00,,,0.01,Wunderground v.1.15,2013-01-19 22:00:00,
2013-01-19 17:05:00,70.3,61.2,30.12,ENE,57,6.0,7.0,73,0.00,,,0.01,Wunderground v.1.15,2013-01-19 22:05:00,
2013-01-19 17:10:00,70.2,61.1,30.12,NE,56,5.0,5.0,73,0.00,,,0.01,Wunderground v.1.15,2013-01-19 22:10:00,
2013-01-19 17:15:00,70.1,61.4,30.12,ENE,67,3.0,5.0,74,0.00,,,0.01,Wunderground v.1.15,2013-01-19 22:15:00,
2013-01-19 17:20:00,69.9,61.2,30.12,East,85,3.0,5.0,74,0.00,,,0.01,Wunderground v.1.15,2013-01-19 22:20:00,
2013-01-19 17:25:00,69.8,61.1,30.12,NE,43,4.0,5.0,74,0.00,,,0.01,Wunderground v.1.15,2013-01-19 22:25:00,
2013-01-19 17:40:00,69.5,60.8,30.12,NE,46,6.0,7.0,74,0.00,,,0.01,Wunderground v.1.15,2013-01-19 22:40:00,
2013-01-19 17:45:00,69.4,60.8,30.13,NE,44,4.0,7.0,74,0.00,,,0.01,Wunderground v.1.15,2013-01-19 22:45:00,
2013-01-19 17:55:00,69.1,60.8,30.13,NE,46,4.0,4.0,75,0.00,,,0.01,Wunderground v.1.15,2013-01-19 22:55:00,
2013-01-19 18:05:00,68.9,60.6,30.13,NE,45,4.0,5.0,75,0.00,,,0.01,Wunderground v.1.15,2013-01-19 23:05:00,
2013-01-19 18:15:00,68.8,60.9,30.13,NNE,26,6.0,8.0,76,0.00,,,0.01,Wunderground v.1.15,2013-01-19 23:15:00,
2013-01-19 18:20:00,68.7,60.8,30.14,NE,37,6.0,6.0,76,0.00,,,0.01,Wunderground v.1.15,2013-01-19 23:20:00,
2013-01-19 18:25:00,68.6,61.1,30.14,NE,48,4.0,6.0,77,0.00,,,0.01,Wunderground v.1.15,2013-01-19 23:25:00,
2013-01-19 18:30:00,68.5,61.0,30.14,NE,49,2.0,2.0,77,0.00,,,0.01,Wunderground v.1.15,2013-01-19 23:30:00,
2013-01-19 18:40:00,68.3,61.2,30.14,NE,53,5.0,5.0,78,0.00,,,0.01,Wunderground v.1.15,2013-01-19 23:40:00,
2013-01-19 18:45:00,68.3,61.2,30.14,NNE,19,6.0,6.0,78,0.00,,,0.01,Wunderground v.1.15,2013-01-19 23:45:00,
2013-01-19 18:55:00,68.1,61.3,30.14,NNE,28,4.0,5.0,79,0.00,,,0.01,Wunderground v.1.15,2013-01-19 23:55:00,
2013-01-19 19:05:00,67.9,61.1,30.14,NE,34,4.0,5.0,79,0.00,,,0.01,Wunderground v.1.15,2013-01-20 00:05:00,
2013-01-19 19:10:00,67.9,61.5,30.14,NE,34,3.0,4.0,80,0.00,,,0.01,Wunderground v.1.15,2013-01-20 00:10:00,
2013-01-19 19:15:00,67.8,61.4,30.14,NNE,18,3.0,4.0,80,0.00,,,0.01,Wunderground v.1.15,2013-01-20 00:15:00,
2013-01-19 19:20:00,67.7,61.3,30.14,NNE,24,4.0,4.0,80,0.00,,,0.01,Wunderground v.1.15,2013-01-20 00:20:00,
2013-01-19 19:25:00,67.7,61.7,30.14,NE,51,4.0,8.0,81,0.00,,,0.01,Wunderground v.1.15,2013-01-20 00:25:00,
2013-01-19 19:35:00,67.6,61.6,30.15,NE,41,4.0,5.0,81,0.00,,,0.01,Wunderground v.1.15,2013-01-20 00:35:00,
2013-01-19 19:40:00,67.6,61.6,30.15,NNE,32,4.0,4.0,81,0.00,,,0.01,Wunderground v.1.15,2013-01-20 00:40:00,
2013-01-19 19:45:00,67.5,61.8,30.15,NE,44,3.0,5.0,82,0.00,,,0.01,Wunderground v.1.15,2013-01-20 00:45:00,
2013-01-19 19:50:00,67.5,61.8,30.15,NE,40,4.0,4.0,82,0.00,,,0.01,Wunderground v.1.15,2013-01-20 00:50:00,
2013-01-19 19:55:00,67.5,61.8,30.15,NE,44,4.0,4.0,82,0.00,,,0.01,Wunderground v.1.15,2013-01-20 00:55:00,
2013-01-19 20:00:00,67.4,61.7,30.15,NE,42,3.0,6.0,82,0.00,,,0.01,Wunderground v.1.15,2013-01-20 01:00:00,
2013-01-19 20:05:00,67.4,62.1,30.15,NE,42,4.0,6.0,83,0.00,,,0.01,Wunderground v.1.15,2013-01-20 01:05:00,
2013-01-19 20:10:00,67.3,62.0,30.15,NE,42,4.0,5.0,83,0.00,,,0.01,Wunderground v.1.15,2013-01-20 01:10:00,
2013-01-19 20:15:00,67.2,61.9,30.15,NE,42,3.0,5.0,83,0.00,,,0.01,Wunderground v.1.15,2013-01-20 01:15:00,
2013-01-19 20:20:00,67.2,61.9,30.16,NE,42,2.0,3.0,83,0.00,,,0.01,Wunderground v.1.15,2013-01-20 01:20:00,
2013-01-19 20:30:00,66.9,61.6,30.15,NE,42,1.0,1.0,83,0.00,,,0.01,Wunderground v.1.15,2013-01-20 01:30:00,
2013-01-19 20:35:00,66.8,61.5,30.15,NE,42,0.0,1.0,83,0.00,,,0.01,Wunderground v.1.15,2013-01-20 01:35:00,
2013-01-19 20:40:00,66.6,61.3,30.15,NE,41,0.0,0.0,83,0.00,,,0.01,Wunderground v.1.15,2013-01-20 01:40:00,
2013-01-19 20:45:00,66.4,61.4,30.15,NE,41,0.0,0.0,84,0.00,,,0.01,Wunderground v.1.15,2013-01-20 01:45:00,
2013-01-19 20:50:00,66.1,61.1,30.15,NE,42,0.0,0.0,84,0.00,,,0.01,Wunderground v.1.15,2013-01-20 01:50:00,
2013-01-19 20:55:00,65.9,60.9,30.15,NE,41,0.0,0.0,84,0.00,,,0.01,Wunderground v.1.15,2013-01-20 01:55:00,
2013-01-19 21:00:00,65.8,60.8,30.15,NE,42,0.0,0.0,84,0.00,,,0.01,Wunderground v.1.15,2013-01-20 02:00:00,
2013-01-19 21:05:00,65.6,61.0,30.15,NE,41,0.0,0.0,85,0.00,,,0.01,Wunderground v.1.15,2013-01-20 02:05:00,
2013-01-19 21:15:00,65.4,60.8,30.15,NE,42,0.0,0.0,85,0.00,,,0.01,Wunderground v.1.15,2013-01-20 02:15:00,
2013-01-19 21:20:00,65.4,60.8,30.15,NE,41,0.0,0.0,85,0.00,,,0.01,Wunderground v.1.15,2013-01-20 02:20:00,
2013-01-19 21:30:00,65.4,61.1,30.15,NE,41,1.0,3.0,86,0.00,,,0.01,Wunderground v.1.15,2013-01-20 02:30:00,
2013-01-19 21:35:00,65.4,60.8,30.14,NE,41,2.0,3.0,85,0.00,,,0.01,Wunderground v.1.15,2013-01-20 02:35:00,
2013-01-19 21:40:00,65.4,60.8,30.14,NE,41,2.0,2.0,85,0.00,,,0.01,Wunderground v.1.15,2013-01-20 02:40:00,
2013-01-19 21:50:00,65.3,60.7,30.14,NE,41,1.0,1.0,85,0.00,,,0.01,Wunderground v.1.15,2013-01-20 02:50:00,
2013-01-19 21:55:00,65.3,60.7,30.14,NE,41,1.0,1.0,85,0.00,,,0.01,Wunderground v.1.15,2013-01-20 02:55:00,
2013-01-19 22:00:00,65.2,60.6,30.14,NE,41,1.0,4.0,85,0.00,,,0.01,Wunderground v.1.15,2013-01-20 03:00:00,
2013-01-19 22:05:00,65.2,60.6,30.14,NE,41,2.0,4.0,85,0.00,,,0.01,Wunderground v.1.15,2013-01-20 03:05:00,
2013-01-19 22:10:00,65.2,60.6,30.14,NE,41,1.0,1.0,85,0.00,,,0.01,Wunderground v.1.15,2013-01-20 03:10:00,
2013-01-19 22:15:00,65.1,60.8,30.14,NE,41,0.0,1.0,86,0.00,,,0.01,Wunderground v.1.15,2013-01-20 03:15:00,
2013-01-19 22:20:00,64.9,60.6,30.13,NE,41,0.0,0.0,86,0.00,,,0.01,Wunderground v.1.15,2013-01-20 03:20:00,
2013-01-19 22:25:00,64.8,60.8,30.13,NE,41,0.0,0.0,87,0.00,,,0.01,Wunderground v.1.15,2013-01-20 03:25:00,
2013-01-19 22:30:00,64.7,60.7,30.13,NE,41,0.0,0.0,87,0.00,,,0.01,Wunderground v.1.15,2013-01-20 03:30:00,
2013-01-19 22:35:00,64.5,60.5,30.13,NE,41,0.0,0.0,87,0.00,,,0.01,Wunderground v.1.15,2013-01-20 03:35:00,
2013-01-19 22:40:00,64.4,60.4,30.13,NE,41,0.0,0.0,87,0.00,,,0.01,Wunderground v.1.15,2013-01-20 03:40:00,
2013-01-19 22:45:00,64.3,60.3,30.14,NE,41,0.0,0.0,87,0.00,,,0.01,Wunderground v.1.15,2013-01-20 03:45:00,
2013-01-19 22:50:00,64.3,60.7,30.13,NE,41,0.0,0.0,88,0.00,,,0.01,Wunderground v.1.15,2013-01-20 03:50:00,
2013-01-19 22:55:00,64.3,60.7,30.13,NE,41,0.0,0.0,88,0.00,,,0.01,Wunderground v.1.15,2013-01-20 03:55:00,
2013-01-19 23:00:00,64.2,60.6,30.13,NE,41,0.0,0.0,88,0.00,,,0.01,Wunderground v.1.15,2013-01-20 04:00:00,
2013-01-19 23:05:00,64.2,60.6,30.13,NE,41,0.0,2.0,88,0.00,,,0.01,Wunderground v.1.15,2013-01-20 04:05:00,
2013-01-19 23:15:00,64.1,60.5,30.13,NE,40,2.0,2.0,88,0.00,,,0.01,Wunderground v.1.15,2013-01-20 04:15:00,
2013-01-19 23:25:00,64.1,60.2,30.13,NNE,28,3.0,4.0,87,0.00,,,0.01,Wunderground v.1.15,2013-01-20 04:25:00,
2013-01-19 23:30:00,64.0,60.1,30.13,NNE,26,3.0,3.0,87,0.00,,,0.01,Wunderground v.1.15,2013-01-20 04:30:00,
2013-01-19 23:35:00,64.0,60.1,30.13,NNE,14,2.0,4.0,87,0.00,,,0.01,Wunderground v.1.15,2013-01-20 04:35:00,
2013-01-19 23:40:00,63.9,60.0,30.12,North,360,3.0,3.0,87,0.00,,,0.01,Wunderground v.1.15,2013-01-20 04:40:00,
2013-01-19 23:45:00,63.8,59.9,30.13,North,355,3.0,8.0,87,0.00,,,0.01,Wunderground v.1.15,2013-01-20 04:45:00,
2013-01-19 23:50:00,63.5,59.6,30.12,NNW,345,3.0,4.0,87,0.00,,,0.01,Wunderground v.1.15,2013-01-20 04:50:00,
2013-01-19 23:55:00,63.3,59.4,30.12,NNW,343,4.0,4.0,87,0.00,,,0.01,Wunderground v.1.15,2013-01-20 04:55:00,